PGT2UQ LTAI-LTAC
Flight info
| Callsign | PGT2UQ |
|---|---|
| Flight time | 0h 49m |
| Altitude | 34000 |
| Route | HISAR UW77 HALIL |
| Aircraft | A320/M-SDE3FGHIRWY/LB1 |
Departure
| Time | 2026-05-05 11:11 |
|---|---|
| Airport | Antalya International Airport (LTAI) |
Arrival
| Time | 2026-05-05 12:00 |
|---|---|
| Airport | Esenboğa International Airport (LTAC) |
| Time | Latitude | Longitude | Altitude | Speed | Heading |
|---|---|---|---|---|---|
| 2026-05-05 10:50 | 36.91466 | 30.80043 | 175 ft | 0 kts | 37° |
| 2026-05-05 10:55 | 36.91457 | 30.80034 | 175 ft | 3 kts | 43° |
| 2026-05-05 10:55 | 36.91444 | 30.80015 | 175 ft | 3 kts | 59° |
| 2026-05-05 10:55 | 36.91435 | 30.79993 | 175 ft | 3 kts | 80° |
| 2026-05-05 10:56 | 36.91434 | 30.79968 | 175 ft | 3 kts | 100° |
| 2026-05-05 10:56 | 36.91439 | 30.79944 | 175 ft | 3 kts | 118° |
| 2026-05-05 10:56 | 36.91450 | 30.79923 | 175 ft | 3 kts | 135° |
| 2026-05-05 10:56 | 36.91466 | 30.79908 | 175 ft | 3 kts | 165° |
| 2026-05-05 10:57 | 36.91475 | 30.79906 | 175 ft | 0 kts | 186° |
| 2026-05-05 10:59 | 36.91473 | 30.79905 | 175 ft | 2 kts | 186° |
| 2026-05-05 10:59 | 36.91442 | 30.79901 | 175 ft | 7 kts | 186° |
| 2026-05-05 10:59 | 36.91374 | 30.79898 | 175 ft | 12 kts | 182° |
| 2026-05-05 11:00 | 36.91280 | 30.79886 | 175 ft | 15 kts | 187° |
| 2026-05-05 11:00 | 36.91199 | 30.79849 | 175 ft | 12 kts | 250° |
| 2026-05-05 11:00 | 36.91209 | 30.79730 | 175 ft | 14 kts | 277° |
| 2026-05-05 11:00 | 36.91169 | 30.79640 | 175 ft | 15 kts | 180° |
| 2026-05-05 11:01 | 36.91051 | 30.79626 | 176 ft | 19 kts | 187° |
| 2026-05-05 11:01 | 36.90902 | 30.79605 | 176 ft | 20 kts | 186° |
| 2026-05-05 11:01 | 36.90772 | 30.79587 | 176 ft | 18 kts | 187° |
| 2026-05-05 11:01 | 36.90653 | 30.79569 | 176 ft | 17 kts | 185° |
| 2026-05-05 11:02 | 36.90527 | 30.79553 | 176 ft | 20 kts | 186° |
| 2026-05-05 11:02 | 36.90416 | 30.79539 | 176 ft | 16 kts | 186° |
| 2026-05-05 11:02 | 36.90290 | 30.79522 | 175 ft | 20 kts | 186° |
| 2026-05-05 11:02 | 36.90148 | 30.79502 | 175 ft | 20 kts | 186° |
| 2026-05-05 11:03 | 36.89999 | 30.79482 | 176 ft | 22 kts | 186° |
| 2026-05-05 11:03 | 36.89851 | 30.79462 | 176 ft | 21 kts | 186° |
| 2026-05-05 11:03 | 36.89703 | 30.79442 | 176 ft | 22 kts | 187° |
| 2026-05-05 11:03 | 36.89537 | 30.79418 | 176 ft | 20 kts | 186° |
| 2026-05-05 11:04 | 36.89399 | 30.79400 | 176 ft | 21 kts | 186° |
| 2026-05-05 11:04 | 36.89255 | 30.79380 | 176 ft | 19 kts | 186° |
| 2026-05-05 11:04 | 36.89123 | 30.79362 | 176 ft | 15 kts | 185° |
| 2026-05-05 11:04 | 36.89008 | 30.79347 | 176 ft | 17 kts | 187° |
| 2026-05-05 11:05 | 36.88911 | 30.79345 | 176 ft | 11 kts | 149° |
| 2026-05-05 11:05 | 36.88897 | 30.79449 | 176 ft | 15 kts | 96° |
| 2026-05-05 11:05 | 36.88883 | 30.79595 | 176 ft | 19 kts | 96° |
| 2026-05-05 11:05 | 36.88870 | 30.79744 | 176 ft | 18 kts | 96° |
| 2026-05-05 11:06 | 36.88856 | 30.79891 | 176 ft | 15 kts | 97° |
| 2026-05-05 11:06 | 36.88844 | 30.80043 | 176 ft | 20 kts | 97° |
| 2026-05-05 11:06 | 36.88830 | 30.80207 | 176 ft | 18 kts | 96° |
| 2026-05-05 11:06 | 36.88820 | 30.80344 | 176 ft | 15 kts | 96° |
| 2026-05-05 11:07 | 36.88804 | 30.80489 | 176 ft | 19 kts | 97° |
| 2026-05-05 11:07 | 36.88766 | 30.80575 | 177 ft | 12 kts | 169° |
| 2026-05-05 11:07 | 36.88666 | 30.80564 | 177 ft | 17 kts | 186° |
| 2026-05-05 11:07 | 36.88569 | 30.80552 | 176 ft | 10 kts | 185° |
| 2026-05-05 11:08 | 36.88500 | 30.80543 | 176 ft | 11 kts | 187° |
| 2026-05-05 11:08 | 36.88408 | 30.80530 | 176 ft | 16 kts | 187° |
| 2026-05-05 11:08 | 36.88292 | 30.80513 | 176 ft | 16 kts | 187° |
| 2026-05-05 11:08 | 36.88188 | 30.80497 | 176 ft | 11 kts | 186° |
| 2026-05-05 11:09 | 36.88145 | 30.80551 | 176 ft | 9 kts | 95° |
| 2026-05-05 11:09 | 36.88140 | 30.80629 | 175 ft | 8 kts | 95° |
| 2026-05-05 11:09 | 36.88135 | 30.80697 | 175 ft | 7 kts | 95° |
| 2026-05-05 11:09 | 36.88156 | 30.80731 | 176 ft | 5 kts | 9° |
| 2026-05-05 11:10 | 36.88174 | 30.80733 | 176 ft | 0 kts | 5° |
| 2026-05-05 11:10 | 36.88227 | 30.80739 | 176 ft | 35 kts | 6° |
| 2026-05-05 11:10 | 36.88724 | 30.80804 | 178 ft | 103 kts | 6° |
| 2026-05-05 11:11 | 36.89604 | 30.80931 | 182 ft | 152 kts | 7° |
| 2026-05-05 11:11 | 36.90688 | 30.81119 | 768 ft | 156 kts | 9° |
| 2026-05-05 11:11 | 36.91757 | 30.81466 | 1464 ft | 161 kts | 19° |
| 2026-05-05 11:11 | 36.92811 | 30.81978 | 2179 ft | 168 kts | 19° |
| 2026-05-05 11:12 | 36.93975 | 30.82533 | 2650 ft | 190 kts | 18° |
| 2026-05-05 11:12 | 36.95278 | 30.83156 | 3089 ft | 209 kts | 20° |
| 2026-05-05 11:12 | 36.96644 | 30.83820 | 3914 ft | 211 kts | 20° |
| 2026-05-05 11:12 | 36.98023 | 30.84499 | 4827 ft | 215 kts | 20° |
| 2026-05-05 11:13 | 36.99424 | 30.85193 | 5669 ft | 221 kts | 20° |
| 2026-05-05 11:13 | 37.00938 | 30.85928 | 6142 ft | 245 kts | 20° |
| 2026-05-05 11:13 | 37.02593 | 30.86726 | 6769 ft | 261 kts | 20° |
| 2026-05-05 11:13 | 37.04307 | 30.87554 | 7583 ft | 267 kts | 20° |
| 2026-05-05 11:14 | 37.05461 | 30.88114 | 8168 ft | 270 kts | 20° |
| 2026-05-05 11:14 | 37.07292 | 30.88724 | 9041 ft | 275 kts | 8° |
| 2026-05-05 11:14 | 37.09165 | 30.89254 | 9922 ft | 280 kts | 19° |
| 2026-05-05 11:14 | 37.10999 | 30.90242 | 10408 ft | 298 kts | 25° |
| 2026-05-05 11:15 | 37.12906 | 30.91508 | 10707 ft | 321 kts | 28° |
| 2026-05-05 11:15 | 37.14887 | 30.92897 | 11328 ft | 330 kts | 28° |
| 2026-05-05 11:15 | 37.16910 | 30.94298 | 12097 ft | 334 kts | 27° |
| 2026-05-05 11:15 | 37.18974 | 30.95677 | 12875 ft | 338 kts | 26° |
| 2026-05-05 11:16 | 37.21079 | 30.97035 | 13644 ft | 342 kts | 25° |
| 2026-05-05 11:16 | 37.23243 | 30.98395 | 14334 ft | 345 kts | 25° |
| 2026-05-05 11:16 | 37.25402 | 30.99736 | 15063 ft | 347 kts | 24° |
| 2026-05-05 11:16 | 37.27571 | 31.01078 | 15819 ft | 348 kts | 24° |
| 2026-05-05 11:17 | 37.29750 | 31.02426 | 16578 ft | 349 kts | 24° |
| 2026-05-05 11:17 | 37.31933 | 31.03780 | 17295 ft | 351 kts | 24° |
| 2026-05-05 11:17 | 37.34128 | 31.05148 | 18020 ft | 353 kts | 24° |
| 2026-05-05 11:17 | 37.36331 | 31.06523 | 18653 ft | 355 kts | 23° |
| 2026-05-05 11:18 | 37.38549 | 31.07912 | 19211 ft | 358 kts | 23° |
| 2026-05-05 11:18 | 37.40778 | 31.09312 | 19786 ft | 360 kts | 22° |
| 2026-05-05 11:18 | 37.43026 | 31.10722 | 20352 ft | 362 kts | 22° |
| 2026-05-05 11:18 | 37.45289 | 31.12138 | 20916 ft | 365 kts | 22° |
| 2026-05-05 11:19 | 37.47568 | 31.13563 | 21440 ft | 367 kts | 21° |
| 2026-05-05 11:19 | 37.49862 | 31.15002 | 21931 ft | 370 kts | 21° |
| 2026-05-05 11:19 | 37.52173 | 31.16452 | 22458 ft | 372 kts | 21° |
| 2026-05-05 11:19 | 37.54494 | 31.17913 | 22992 ft | 375 kts | 21° |
| 2026-05-05 11:20 | 37.56838 | 31.19388 | 23515 ft | 378 kts | 21° |
| 2026-05-05 11:20 | 37.59196 | 31.20875 | 23975 ft | 380 kts | 20° |
| 2026-05-05 11:20 | 37.61563 | 31.22370 | 24381 ft | 382 kts | 21° |
| 2026-05-05 11:20 | 37.63944 | 31.23873 | 24791 ft | 384 kts | 21° |
| 2026-05-05 11:21 | 37.66342 | 31.25382 | 25194 ft | 386 kts | 21° |
| 2026-05-05 11:21 | 37.68750 | 31.26896 | 25628 ft | 388 kts | 21° |
| 2026-05-05 11:21 | 37.71170 | 31.28423 | 26068 ft | 390 kts | 21° |
| 2026-05-05 11:21 | 37.73605 | 31.29962 | 26457 ft | 392 kts | 21° |
| 2026-05-05 11:22 | 37.76047 | 31.31506 | 26857 ft | 394 kts | 21° |
| 2026-05-05 11:22 | 37.78503 | 31.33059 | 27237 ft | 396 kts | 21° |
| 2026-05-05 11:22 | 37.80974 | 31.34624 | 27625 ft | 398 kts | 21° |
| 2026-05-05 11:22 | 37.83458 | 31.36203 | 28018 ft | 400 kts | 21° |
| 2026-05-05 11:23 | 37.85949 | 31.37789 | 28416 ft | 402 kts | 21° |
| 2026-05-05 11:23 | 37.88454 | 31.39382 | 28793 ft | 404 kts | 21° |
| 2026-05-05 11:23 | 37.91009 | 31.41005 | 29165 ft | 406 kts | 21° |
| 2026-05-05 11:23 | 37.93539 | 31.42609 | 29511 ft | 408 kts | 21° |
| 2026-05-05 11:24 | 37.96078 | 31.44220 | 29850 ft | 410 kts | 21° |
| 2026-05-05 11:24 | 37.98634 | 31.45845 | 30178 ft | 412 kts | 21° |
| 2026-05-05 11:24 | 38.01200 | 31.47479 | 30448 ft | 413 kts | 21° |
| 2026-05-05 11:24 | 38.03772 | 31.49120 | 30719 ft | 415 kts | 21° |
| 2026-05-05 11:25 | 38.06360 | 31.50774 | 30999 ft | 417 kts | 21° |
| 2026-05-05 11:25 | 38.08954 | 31.52436 | 31259 ft | 418 kts | 21° |
| 2026-05-05 11:25 | 38.11552 | 31.54101 | 31611 ft | 417 kts | 21° |
| 2026-05-05 11:25 | 38.14143 | 31.55756 | 31963 ft | 416 kts | 21° |
| 2026-05-05 11:26 | 38.16732 | 31.57392 | 32349 ft | 415 kts | 21° |
| 2026-05-05 11:26 | 38.19317 | 31.59016 | 32751 ft | 414 kts | 21° |
| 2026-05-05 11:26 | 38.21899 | 31.60631 | 33127 ft | 413 kts | 21° |
| 2026-05-05 11:26 | 38.24476 | 31.62239 | 33505 ft | 412 kts | 21° |
| 2026-05-05 11:27 | 38.27048 | 31.63848 | 33873 ft | 412 kts | 21° |
| 2026-05-05 11:27 | 38.29615 | 31.65467 | 34016 ft | 410 kts | 21° |
| 2026-05-05 11:27 | 38.32149 | 31.67072 | 34027 ft | 405 kts | 21° |
| 2026-05-05 11:28 | 38.37179 | 31.70264 | 34029 ft | 403 kts | 21° |
| 2026-05-05 11:28 | 38.42198 | 31.73439 | 34028 ft | 402 kts | 21° |
| 2026-05-05 11:29 | 38.47214 | 31.76607 | 34025 ft | 402 kts | 21° |
| 2026-05-05 11:29 | 38.52224 | 31.79790 | 34026 ft | 402 kts | 21° |
| 2026-05-05 11:30 | 38.57234 | 31.82979 | 34028 ft | 402 kts | 22° |
| 2026-05-05 11:30 | 38.62237 | 31.86173 | 34021 ft | 402 kts | 22° |
| 2026-05-05 11:31 | 38.67237 | 31.89368 | 34018 ft | 401 kts | 22° |
| 2026-05-05 11:31 | 38.72265 | 31.92589 | 34015 ft | 401 kts | 22° |
| 2026-05-05 11:32 | 38.77253 | 31.95786 | 34007 ft | 401 kts | 22° |
| 2026-05-05 11:32 | 38.82244 | 31.98983 | 34010 ft | 401 kts | 22° |
| 2026-05-05 11:33 | 38.87231 | 32.02170 | 34006 ft | 400 kts | 22° |
| 2026-05-05 11:33 | 38.92212 | 32.05376 | 34001 ft | 400 kts | 22° |
| 2026-05-05 11:34 | 38.97187 | 32.08594 | 34007 ft | 400 kts | 22° |
| 2026-05-05 11:34 | 39.02160 | 32.11806 | 34000 ft | 400 kts | 22° |
| 2026-05-05 11:35 | 39.07125 | 32.15014 | 34000 ft | 399 kts | 23° |
| 2026-05-05 11:35 | 39.12090 | 32.18227 | 33990 ft | 399 kts | 23° |
| 2026-05-05 11:36 | 39.17046 | 32.21441 | 33927 ft | 398 kts | 23° |
| 2026-05-05 11:36 | 39.19514 | 32.23040 | 33251 ft | 397 kts | 22° |
| 2026-05-05 11:36 | 39.21987 | 32.24642 | 32510 ft | 397 kts | 22° |
| 2026-05-05 11:36 | 39.24437 | 32.26234 | 31960 ft | 392 kts | 22° |
| 2026-05-05 11:37 | 39.26864 | 32.27815 | 31433 ft | 388 kts | 22° |
| 2026-05-05 11:37 | 39.29260 | 32.29382 | 30917 ft | 384 kts | 21° |
| 2026-05-05 11:37 | 39.31635 | 32.30936 | 30408 ft | 380 kts | 21° |
| 2026-05-05 11:37 | 39.33985 | 32.32476 | 29883 ft | 377 kts | 21° |
| 2026-05-05 11:38 | 39.36240 | 32.34201 | 29290 ft | 379 kts | 30° |
| 2026-05-05 11:38 | 39.38230 | 32.36461 | 28728 ft | 384 kts | 40° |
| 2026-05-05 11:38 | 39.39865 | 32.39209 | 28165 ft | 389 kts | 51° |
| 2026-05-05 11:38 | 39.41073 | 32.42371 | 27623 ft | 394 kts | 62° |
| 2026-05-05 11:39 | 39.42064 | 32.45665 | 27081 ft | 391 kts | 62° |
| 2026-05-05 11:39 | 39.43060 | 32.48966 | 26574 ft | 387 kts | 62° |
| 2026-05-05 11:39 | 39.44121 | 32.52125 | 26073 ft | 378 kts | 56° |
| 2026-05-05 11:39 | 39.45320 | 32.55136 | 25583 ft | 375 kts | 57° |
| 2026-05-05 11:40 | 39.46503 | 32.58129 | 25108 ft | 372 kts | 57° |
| 2026-05-05 11:40 | 39.47669 | 32.61095 | 24636 ft | 368 kts | 57° |
| 2026-05-05 11:40 | 39.48823 | 32.64039 | 24171 ft | 365 kts | 58° |
| 2026-05-05 11:40 | 39.49967 | 32.66958 | 23705 ft | 362 kts | 58° |
| 2026-05-05 11:41 | 39.51101 | 32.69849 | 23192 ft | 359 kts | 58° |
| 2026-05-05 11:41 | 39.52228 | 32.72723 | 22652 ft | 357 kts | 58° |
| 2026-05-05 11:41 | 39.53350 | 32.75580 | 22134 ft | 355 kts | 59° |
| 2026-05-05 11:41 | 39.54466 | 32.78420 | 21621 ft | 353 kts | 59° |
| 2026-05-05 11:42 | 39.55574 | 32.81245 | 21131 ft | 351 kts | 59° |
| 2026-05-05 11:42 | 39.56675 | 32.84059 | 20634 ft | 350 kts | 59° |
| 2026-05-05 11:42 | 39.57772 | 32.86868 | 20155 ft | 348 kts | 60° |
| 2026-05-05 11:42 | 39.58861 | 32.89662 | 19688 ft | 347 kts | 60° |
| 2026-05-05 11:43 | 39.59947 | 32.92446 | 19239 ft | 345 kts | 60° |
| 2026-05-05 11:43 | 39.61100 | 32.95167 | 18794 ft | 342 kts | 54° |
| 2026-05-05 11:43 | 39.62602 | 32.97534 | 18333 ft | 339 kts | 43° |
| 2026-05-05 11:43 | 39.64424 | 32.99451 | 17855 ft | 336 kts | 32° |
| 2026-05-05 11:44 | 39.66459 | 33.00917 | 17371 ft | 334 kts | 26° |
| 2026-05-05 11:44 | 39.68519 | 33.02317 | 17082 ft | 334 kts | 27° |
| 2026-05-05 11:44 | 39.70577 | 33.03721 | 16812 ft | 334 kts | 27° |
| 2026-05-05 11:44 | 39.72630 | 33.05126 | 16556 ft | 333 kts | 27° |
| 2026-05-05 11:45 | 39.74677 | 33.06530 | 16299 ft | 332 kts | 27° |
| 2026-05-05 11:45 | 39.76717 | 33.07931 | 16053 ft | 331 kts | 27° |
| 2026-05-05 11:45 | 39.78750 | 33.09325 | 15942 ft | 330 kts | 27° |
| 2026-05-05 11:45 | 39.80784 | 33.10720 | 15963 ft | 331 kts | 27° |
| 2026-05-05 11:46 | 39.82818 | 33.12117 | 15967 ft | 331 kts | 27° |
| 2026-05-05 11:46 | 39.84859 | 33.13517 | 15697 ft | 333 kts | 27° |
| 2026-05-05 11:46 | 39.86970 | 33.14969 | 14937 ft | 342 kts | 27° |
| 2026-05-05 11:46 | 39.88347 | 33.15917 | 14818 ft | 335 kts | 27° |
| 2026-05-05 11:47 | 39.90381 | 33.17319 | 14591 ft | 328 kts | 27° |
| 2026-05-05 11:47 | 39.92482 | 33.18402 | 14336 ft | 324 kts | 11° |
| 2026-05-05 11:47 | 39.94718 | 33.18484 | 14081 ft | 322 kts | 351° |
| 2026-05-05 11:47 | 39.96830 | 33.17546 | 13810 ft | 322 kts | 330° |
| 2026-05-05 11:48 | 39.99853 | 33.13384 | 13400 ft | 312 kts | 307° |
| 2026-05-05 11:48 | 40.01115 | 33.11129 | 13265 ft | 303 kts | 308° |
| 2026-05-05 11:48 | 40.02623 | 33.09324 | 13125 ft | 291 kts | 334° |
| 2026-05-05 11:49 | 40.04540 | 33.08794 | 12993 ft | 280 kts | 6° |
| 2026-05-05 11:49 | 40.06328 | 33.09614 | 12854 ft | 272 kts | 33° |
| 2026-05-05 11:49 | 40.07846 | 33.11035 | 12726 ft | 265 kts | 35° |
| 2026-05-05 11:49 | 40.09326 | 33.12455 | 12459 ft | 264 kts | 36° |
| 2026-05-05 11:50 | 40.10794 | 33.13870 | 12214 ft | 261 kts | 36° |
| 2026-05-05 11:50 | 40.12246 | 33.15268 | 12031 ft | 258 kts | 36° |
| 2026-05-05 11:50 | 40.13688 | 33.16655 | 11849 ft | 257 kts | 35° |
| 2026-05-05 11:50 | 40.15124 | 33.18034 | 11641 ft | 255 kts | 36° |
| 2026-05-05 11:51 | 40.16555 | 33.19407 | 11341 ft | 254 kts | 35° |
| 2026-05-05 11:51 | 40.17980 | 33.20772 | 11067 ft | 254 kts | 36° |
| 2026-05-05 11:51 | 40.19401 | 33.22133 | 10779 ft | 253 kts | 35° |
| 2026-05-05 11:51 | 40.20835 | 33.23507 | 10511 ft | 252 kts | 36° |
| 2026-05-05 11:52 | 40.22240 | 33.24857 | 10221 ft | 251 kts | 36° |
| 2026-05-05 11:52 | 40.23645 | 33.26209 | 9931 ft | 250 kts | 36° |
| 2026-05-05 11:52 | 40.25039 | 33.27551 | 9623 ft | 249 kts | 35° |
| 2026-05-05 11:52 | 40.26432 | 33.28888 | 9312 ft | 248 kts | 35° |
| 2026-05-05 11:53 | 40.27818 | 33.30217 | 8995 ft | 246 kts | 35° |
| 2026-05-05 11:53 | 40.29217 | 33.31487 | 8757 ft | 242 kts | 26° |
| 2026-05-05 11:53 | 40.30789 | 33.32082 | 8570 ft | 233 kts | 2° |
| 2026-05-05 11:53 | 40.32366 | 33.31756 | 8259 ft | 231 kts | 337° |
| 2026-05-05 11:54 | 40.33682 | 33.30582 | 7960 ft | 231 kts | 312° |
| 2026-05-05 11:54 | 40.34492 | 33.28791 | 7642 ft | 231 kts | 288° |
| 2026-05-05 11:54 | 40.34653 | 33.26705 | 7325 ft | 232 kts | 263° |
| 2026-05-05 11:54 | 40.34123 | 33.24718 | 7004 ft | 233 kts | 237° |
| 2026-05-05 11:55 | 40.33071 | 33.23094 | 6663 ft | 234 kts | 227° |
| 2026-05-05 11:55 | 40.31963 | 33.21530 | 6341 ft | 234 kts | 228° |
| 2026-05-05 11:55 | 40.30860 | 33.19967 | 6068 ft | 233 kts | 228° |
| 2026-05-05 11:55 | 40.29763 | 33.18413 | 6000 ft | 232 kts | 228° |
| 2026-05-05 11:56 | 40.28666 | 33.16857 | 6002 ft | 232 kts | 228° |
| 2026-05-05 11:56 | 40.27602 | 33.15344 | 5999 ft | 220 kts | 228° |
| 2026-05-05 11:56 | 40.26581 | 33.13895 | 5995 ft | 213 kts | 228° |
| 2026-05-05 11:56 | 40.25607 | 33.12515 | 6017 ft | 198 kts | 228° |
| 2026-05-05 11:57 | 40.24703 | 33.11255 | 5977 ft | 184 kts | 225° |
| 2026-05-05 11:57 | 40.23738 | 33.10163 | 5608 ft | 183 kts | 219° |
| 2026-05-05 11:57 | 40.22735 | 33.09158 | 5330 ft | 178 kts | 218° |
| 2026-05-05 11:57 | 40.21776 | 33.08228 | 5082 ft | 165 kts | 217° |
| 2026-05-05 11:58 | 40.20881 | 33.07368 | 4852 ft | 156 kts | 217° |
| 2026-05-05 11:58 | 40.20021 | 33.06544 | 4634 ft | 151 kts | 217° |
| 2026-05-05 11:58 | 40.19179 | 33.05739 | 4403 ft | 149 kts | 218° |
| 2026-05-05 11:58 | 40.18346 | 33.04942 | 4205 ft | 148 kts | 218° |
| 2026-05-05 11:59 | 40.17522 | 33.04155 | 4015 ft | 146 kts | 218° |
| 2026-05-05 11:59 | 40.16705 | 33.03380 | 3842 ft | 146 kts | 218° |
| 2026-05-05 11:59 | 40.15881 | 33.02611 | 3668 ft | 145 kts | 219° |
| 2026-05-05 11:59 | 40.15065 | 33.01807 | 3398 ft | 144 kts | 219° |
| 2026-05-05 12:00 | 40.14260 | 33.01039 | 3219 ft | 143 kts | 220° |
| 2026-05-05 12:00 | 40.13486 | 33.00295 | 3136 ft | 123 kts | 218° |
| 2026-05-05 12:00 | 40.13031 | 32.99865 | 3136 ft | 50 kts | 216° |
| 2026-05-05 12:00 | 40.12779 | 32.99628 | 3136 ft | 36 kts | 214° |
| 2026-05-05 12:01 | 40.12597 | 32.99451 | 3136 ft | 31 kts | 217° |
| 2026-05-05 12:01 | 40.12437 | 32.99303 | 3136 ft | 25 kts | 215° |
| 2026-05-05 12:01 | 40.12321 | 32.99224 | 3136 ft | 17 kts | 197° |
| 2026-05-05 12:01 | 40.12207 | 32.99200 | 3136 ft | 17 kts | 184° |
| 2026-05-05 12:02 | 40.12090 | 32.99188 | 3136 ft | 15 kts | 185° |
| 2026-05-05 12:02 | 40.11988 | 32.99169 | 3136 ft | 15 kts | 198° |
| 2026-05-05 12:02 | 40.11898 | 32.99091 | 3136 ft | 16 kts | 216° |
| 2026-05-05 12:02 | 40.11837 | 32.99034 | 3136 ft | 8 kts | 211° |
| 2026-05-05 12:03 | 40.11798 | 32.99053 | 3136 ft | 6 kts | 128° |
| 2026-05-05 12:03 | 40.11770 | 32.99102 | 3136 ft | 9 kts | 133° |
| 2026-05-05 12:03 | 40.11716 | 32.99120 | 3136 ft | 9 kts | 187° |
| 2026-05-05 12:03 | 40.11657 | 32.99059 | 3136 ft | 11 kts | 236° |
| 2026-05-05 12:04 | 40.11617 | 32.99037 | 3136 ft | 6 kts | 152° |
| 2026-05-05 12:04 | 40.11590 | 32.99066 | 3136 ft | 4 kts | 143° |
| 2026-05-05 12:04 | 40.11579 | 32.99077 | 3136 ft | 0 kts | 143° |
| 2026-05-05 12:28 | 40.11579 | 32.99076 | 3136 ft | 0 kts | 143° |